Time;durP1;ratioP1;P1;durP2;ratioP2;P2;SDS_P1;SDS_P2;PMS_P1;PMS_P2;Temp;Humidity;BMP_temperature;BMP_pressure;BME280_temperature;BME280_humidity;BME280_pressure;Samples;Min_cycle;Max_cycle;Signal;HPM_P1;HPM_P2
2023/07/07 00:01:29;;;;;;;9.10;8.30;;;14.60;99.90;;;;;;4992929;28;20499;-59
2023/07/07 00:03:57;;;;;;;10.20;9.40;;;14.60;99.90;;;;;;4992287;28;20519;-58
2023/07/07 00:06:27;;;;;;;9.10;8.37;;;14.60;99.90;;;;;;4995067;28;20646;-58
2023/07/07 00:08:55;;;;;;;8.70;8.00;;;14.60;99.90;;;;;;4993618;28;20471;-59
2023/07/07 00:11:23;;;;;;;10.20;9.40;;;14.60;99.90;;;;;;4991064;28;20982;-57
2023/07/07 00:13:54;;;;;;;9.77;9.07;;;14.60;99.90;;;;;;4993859;28;20494;-58
2023/07/07 00:16:27;;;;;;;9.53;8.73;;;14.60;99.90;;;;;;5002456;28;20478;-60
2023/07/07 00:18:56;;;;;;;9.23;8.43;;;14.60;99.90;;;;;;5000486;28;20493;-58
2023/07/07 00:21:27;;;;;;;9.33;8.53;;;14.50;99.90;;;;;;4993287;28;21003;-59
2023/07/07 00:23:57;;;;;;;9.90;9.10;;;14.50;99.90;;;;;;4993202;28;20583;-60
2023/07/07 00:26:26;;;;;;;9.20;8.50;;;14.50;99.90;;;;;;4999096;28;20555;-59
2023/07/07 00:28:54;;;;;;;9.20;8.40;;;14.50;99.90;;;;;;4995090;28;20482;-59
2023/07/07 00:31:22;;;;;;;8.80;8.20;;;14.50;99.90;;;;;;4995982;28;20998;-59
2023/07/07 00:33:50;;;;;;;9.67;8.97;;;14.40;99.90;;;;;;4996778;28;20511;-60
2023/07/07 00:36:18;;;;;;;9.67;8.83;;;14.40;99.90;;;;;;4996165;28;20531;-59
2023/07/07 00:38:47;;;;;;;10.03;9.23;;;14.40;99.90;;;;;;4997642;28;20978;-59
2023/07/07 00:41:16;;;;;;;8.33;7.53;;;14.40;99.90;;;;;;4999385;28;20559;-59
2023/07/07 00:44:00;;;;;;;8.80;8.10;;;14.30;99.90;;;;;;4995898;28;20579;-58
2023/07/07 00:46:29;;;;;;;9.07;8.37;;;14.30;99.90;;;;;;4995189;28;20687;-58
2023/07/07 00:48:58;;;;;;;8.30;7.63;;;14.30;99.90;;;;;;4989871;28;20473;-60
2023/07/07 00:51:31;;;;;;;8.13;7.53;;;14.30;99.90;;;;;;4994890;28;20469;-60
2023/07/07 00:54:07;;;;;;;9.23;8.53;;;14.30;99.90;;;;;;4988719;28;20568;-59
2023/07/07 00:56:37;;;;;;;9.37;8.63;;;14.30;99.90;;;;;;4994429;28;20550;-57
2023/07/07 00:59:11;;;;;;;8.33;7.73;;;14.30;99.90;;;;;;4992410;28;20498;-60
2023/07/07 01:01:39;;;;;;;8.40;7.80;;;14.20;99.90;;;;;;4993643;28;20751;-59
2023/07/07 01:04:12;;;;;;;8.00;7.40;;;14.20;99.90;;;;;;4993338;28;20476;-59
2023/07/07 01:06:44;;;;;;;8.77;7.87;;;14.10;99.90;;;;;;4994003;28;20472;-60
2023/07/07 01:09:14;;;;;;;8.30;7.60;;;14.10;99.90;;;;;;4993633;28;20472;-59
2023/07/07 01:11:42;;;;;;;7.93;7.33;;;14.00;99.90;;;;;;4996678;28;20504;-59
2023/07/07 01:14:16;;;;;;;8.20;7.60;;;14.00;99.90;;;;;;4993809;28;20480;-59
2023/07/07 01:16:55;;;;;;;9.77;8.93;;;14.00;99.90;;;;;;4996736;28;20575;-61
2023/07/07 01:20:03;;;;;;;8.47;7.73;;;14.00;99.90;;;;;;4996101;28;20499;-58
2023/07/07 01:23:11;;;;;;;8.93;8.23;;;14.00;99.90;;;;;;4993324;28;20492;-59
2023/07/07 01:26:14;;;;;;;10.37;9.57;;;14.00;99.90;;;;;;4995143;28;20544;-59
2023/07/07 01:29:28;;;;;;;9.57;8.77;;;14.10;99.90;;;;;;4986895;28;21086;-59
2023/07/07 01:32:01;;;;;;;10.37;9.37;;;14.10;99.90;;;;;;4968599;28;20507;-58
2023/07/07 01:34:30;;;;;;;10.80;9.90;;;14.10;99.90;;;;;;4992043;28;20637;-59
2023/07/07 01:36:58;;;;;;;9.87;9.10;;;14.10;99.90;;;;;;4996909;28;20513;-59
2023/07/07 01:39:27;;;;;;;11.00;10.20;;;14.10;99.90;;;;;;4997666;28;20575;-59
2023/07/07 01:41:58;;;;;;;10.60;9.80;;;14.10;99.90;;;;;;4994290;28;20540;-59
2023/07/07 01:44:33;;;;;;;10.80;10.00;;;14.10;99.90;;;;;;4990073;28;20560;-59
2023/07/07 01:47:10;;;;;;;10.10;9.30;;;14.10;99.90;;;;;;4994707;28;20493;-59
2023/07/07 01:49:43;;;;;;;10.20;9.40;;;14.10;99.90;;;;;;5000274;28;20892;-58
2023/07/07 01:52:17;;;;;;;10.67;9.70;;;14.10;99.90;;;;;;4990872;28;20505;-61
2023/07/07 01:54:49;;;;;;;9.43;8.77;;;14.10;99.90;;;;;;4992679;28;20559;-58
2023/07/07 01:57:18;;;;;;;10.47;9.60;;;14.10;99.90;;;;;;4994688;28;20488;-59
2023/07/07 01:59:46;;;;;;;9.90;9.20;;;14.10;99.90;;;;;;4988907;28;20587;-59
2023/07/07 02:02:16;;;;;;;9.33;8.60;;;14.00;99.90;;;;;;4993512;28;20625;-61
2023/07/07 02:04:44;;;;;;;9.53;8.83;;;14.00;99.90;;;;;;4994733;28;20556;-60
2023/07/07 02:07:12;;;;;;;9.13;8.53;;;14.00;99.90;;;;;;4998874;28;20514;-61
2023/07/07 02:09:41;;;;;;;9.37;8.57;;;14.00;99.90;;;;;;4997880;28;20547;-61
2023/07/07 02:12:09;;;;;;;9.73;8.83;;;14.00;99.90;;;;;;4997819;28;20528;-60
2023/07/07 02:14:37;;;;;;;9.93;9.23;;;14.10;99.90;;;;;;4999661;28;20475;-60
2023/07/07 02:17:05;;;;;;;9.40;8.80;;;14.00;99.90;;;;;;4993174;28;20499;-61
2023/07/07 02:19:35;;;;;;;9.70;8.90;;;14.00;99.90;;;;;;5000452;28;20496;-60
2023/07/07 02:22:03;;;;;;;10.23;9.43;;;14.00;99.90;;;;;;4997177;28;20559;-60
2023/07/07 02:24:31;;;;;;;9.47;8.77;;;14.00;99.90;;;;;;4993162;28;20472;-61
2023/07/07 02:26:59;;;;;;;10.00;9.30;;;14.00;99.90;;;;;;4998828;28;20494;-60
2023/07/07 02:29:27;;;;;;;9.83;9.13;;;14.00;99.90;;;;;;4991988;28;20468;-61
2023/07/07 02:31:55;;;;;;;9.50;8.80;;;14.00;99.90;;;;;;4997430;28;20505;-61
2023/07/07 02:34:23;;;;;;;9.43;8.63;;;13.90;99.90;;;;;;4995496;28;20556;-61
2023/07/07 02:36:53;;;;;;;9.53;8.80;;;13.90;99.90;;;;;;4994988;28;20503;-61
2023/07/07 02:39:21;;;;;;;10.13;9.23;;;13.80;99.90;;;;;;4994049;28;20496;-60
2023/07/07 02:41:49;;;;;;;9.80;9.00;;;13.80;99.90;;;;;;4993962;28;20483;-60
2023/07/07 02:44:17;;;;;;;9.83;9.13;;;13.80;99.90;;;;;;4993197;28;20505;-60
2023/07/07 02:46:45;;;;;;;9.90;9.13;;;13.70;99.90;;;;;;4998495;28;20588;-60
2023/07/07 02:49:13;;;;;;;10.17;9.40;;;13.70;99.90;;;;;;4991564;28;20565;-61
2023/07/07 02:51:41;;;;;;;10.20;9.40;;;13.70;99.90;;;;;;4994307;28;20527;-61
2023/07/07 02:54:11;;;;;;;10.70;9.80;;;13.70;99.90;;;;;;4995537;28;20469;-60
2023/07/07 02:56:39;;;;;;;11.13;10.13;;;13.70;99.90;;;;;;4995143;28;20475;-60
2023/07/07 02:59:07;;;;;;;10.63;9.83;;;13.70;99.90;;;;;;4990491;28;21427;-61
2023/07/07 03:01:35;;;;;;;11.37;10.43;;;13.60;99.90;;;;;;4987314;28;20473;-60
2023/07/07 03:04:04;;;;;;;11.93;11.03;;;13.70;99.90;;;;;;4990758;28;20507;-61
2023/07/07 03:06:32;;;;;;;11.17;10.37;;;13.70;99.90;;;;;;4992090;28;20474;-60
2023/07/07 03:09:00;;;;;;;10.87;10.10;;;13.70;99.90;;;;;;4991186;28;20481;-60
2023/07/07 03:11:30;;;;;;;10.60;9.80;;;13.60;99.90;;;;;;4994611;28;20573;-60
2023/07/07 03:13:58;;;;;;;11.30;10.30;;;13.60;99.90;;;;;;4990559;28;20490;-62
2023/07/07 03:16:30;;;;;;;11.30;10.50;;;13.60;99.90;;;;;;4990009;28;20542;-60
2023/07/07 03:19:00;;;;;;;11.50;10.50;;;13.60;99.90;;;;;;4993673;28;20997;-61
2023/07/07 03:21:28;;;;;;;11.20;10.30;;;13.60;99.90;;;;;;4998609;28;20555;-60
2023/07/07 03:23:57;;;;;;;10.83;10.03;;;13.60;99.90;;;;;;4995195;28;20584;-61
2023/07/07 03:26:27;;;;;;;10.90;10.10;;;13.60;99.90;;;;;;4992582;28;20669;-60
2023/07/07 03:28:57;;;;;;;10.90;10.00;;;13.60;99.90;;;;;;4988115;28;20555;-60
2023/07/07 03:31:28;;;;;;;11.03;10.13;;;13.60;99.90;;;;;;4996160;28;20504;-60
2023/07/07 03:33:58;;;;;;;10.90;10.00;;;13.60;99.90;;;;;;4993982;28;20496;-62
2023/07/07 03:36:28;;;;;;;11.40;10.50;;;13.60;99.90;;;;;;4993792;28;20580;-60
2023/07/07 03:38:57;;;;;;;11.00;10.10;;;13.60;99.90;;;;;;4993692;28;20487;-61
2023/07/07 03:41:27;;;;;;;11.10;10.20;;;13.60;99.90;;;;;;4991741;28;20950;-61
2023/07/07 03:43:56;;;;;;;11.10;10.30;;;13.60;99.90;;;;;;4987539;28;21071;-61
2023/07/07 03:46:26;;;;;;;11.17;10.37;;;13.60;99.90;;;;;;4995340;28;20487;-61
2023/07/07 03:48:55;;;;;;;11.30;10.30;;;13.60;99.90;;;;;;4994692;28;20504;-61
2023/07/07 03:51:24;;;;;;;10.63;9.90;;;13.60;99.90;;;;;;4992331;28;20468;-61
2023/07/07 03:53:52;;;;;;;10.93;9.83;;;13.60;99.90;;;;;;4995767;28;20500;-60
2023/07/07 03:56:21;;;;;;;11.33;10.23;;;13.60;99.90;;;;;;4995729;28;20552;-60
2023/07/07 03:58:49;;;;;;;10.47;9.67;;;13.60;99.90;;;;;;4992899;28;20476;-61
2023/07/07 04:01:19;;;;;;;11.30;10.40;;;13.60;99.90;;;;;;4993557;28;20599;-60
2023/07/07 04:03:47;;;;;;;11.03;10.20;;;13.60;99.90;;;;;;4997471;28;20491;-61
2023/07/07 04:06:17;;;;;;;10.43;9.53;;;13.60;99.90;;;;;;4992762;28;21008;-61
2023/07/07 04:08:45;;;;;;;10.60;9.70;;;13.60;99.90;;;;;;4990257;28;20481;-60
2023/07/07 04:11:16;;;;;;;10.70;9.90;;;13.60;99.90;;;;;;4997523;28;20551;-61
2023/07/07 04:13:46;;;;;;;11.57;10.57;;;13.60;99.90;;;;;;4989479;28;20575;-60
2023/07/07 04:16:20;;;;;;;11.27;10.37;;;13.60;99.90;;;;;;4993777;28;20472;-61
2023/07/07 04:18:50;;;;;;;11.67;10.87;;;13.60;99.90;;;;;;4997047;28;20492;-61
2023/07/07 04:21:20;;;;;;;11.80;10.80;;;13.60;99.90;;;;;;4994764;28;20624;-60
2023/07/07 04:23:49;;;;;;;11.30;10.43;;;13.60;99.90;;;;;;4994332;28;20579;-61
2023/07/07 04:26:19;;;;;;;10.80;9.90;;;13.60;99.90;;;;;;4992557;28;20554;-60
2023/07/07 04:28:47;;;;;;;11.80;10.90;;;13.70;99.90;;;;;;4988282;28;20488;-61
2023/07/07 04:31:15;;;;;;;11.30;10.40;;;13.70;99.90;;;;;;4978081;28;20893;-64
2023/07/07 04:33:45;;;;;;;10.93;10.00;;;13.70;99.90;;;;;;4978171;28;20497;-61
2023/07/07 04:36:13;;;;;;;11.30;10.40;;;13.80;99.90;;;;;;4983520;28;20471;-61
2023/07/07 04:38:41;;;;;;;11.00;10.10;;;13.80;99.90;;;;;;4984965;28;20648;-60
2023/07/07 04:41:11;;;;;;;11.83;10.93;;;13.90;99.90;;;;;;4989471;28;20499;-60
2023/07/07 04:43:40;;;;;;;11.70;10.70;;;13.90;99.90;;;;;;4988713;28;20484;-61
2023/07/07 04:46:11;;;;;;;12.23;11.17;;;14.00;99.90;;;;;;4993289;28;20580;-61
2023/07/07 04:48:39;;;;;;;11.40;10.50;;;14.00;99.90;;;;;;4994047;28;20488;-60
2023/07/07 04:51:11;;;;;;;11.83;10.93;;;14.10;99.90;;;;;;4984803;28;21015;-61
2023/07/07 04:53:40;;;;;;;11.53;10.63;;;14.20;99.90;;;;;;4980224;28;20492;-61
2023/07/07 04:56:10;;;;;;;11.30;10.30;;;14.30;99.90;;;;;;4978215;28;20472;-61
2023/07/07 04:58:40;;;;;;;11.07;10.13;;;14.30;99.90;;;;;;4986564;28;20486;-61
2023/07/07 05:01:09;;;;;;;12.73;11.53;;;14.40;99.90;;;;;;4988652;28;21093;-61
2023/07/07 05:03:38;;;;;;;11.37;10.57;;;14.50;99.90;;;;;;4994460;28;20493;-61
2023/07/07 05:06:11;;;;;;;11.10;10.10;;;14.60;99.90;;;;;;4981332;28;21005;-61
2023/07/07 05:08:42;;;;;;;10.87;10.07;;;14.60;99.90;;;;;;4980729;28;20484;-62
2023/07/07 05:11:11;;;;;;;11.40;10.40;;;14.70;99.90;;;;;;4985515;28;20991;-62
2023/07/07 05:13:40;;;;;;;10.30;9.30;;;14.70;99.90;;;;;;4992737;28;20579;-63
2023/07/07 05:16:09;;;;;;;10.70;9.90;;;14.80;99.90;;;;;;4991371;28;20481;-62
2023/07/07 05:18:38;;;;;;;10.33;9.53;;;14.80;99.90;;;;;;4991965;28;20504;-62
2023/07/07 05:21:08;;;;;;;10.27;9.23;;;14.90;99.90;;;;;;4988312;28;20527;-61
2023/07/07 05:23:38;;;;;;;10.90;10.00;;;14.90;99.90;;;;;;4990440;28;20492;-61
2023/07/07 05:26:07;;;;;;;11.17;10.07;;;15.00;99.90;;;;;;4995034;28;21167;-62
2023/07/07 05:28:35;;;;;;;9.83;9.00;;;15.10;99.90;;;;;;4990329;28;20495;-62
2023/07/07 05:31:06;;;;;;;10.17;9.37;;;15.10;99.90;;;;;;4981601;28;20465;-61
2023/07/07 05:33:35;;;;;;;11.10;10.00;;;15.20;99.90;;;;;;4992265;28;20535;-63
2023/07/07 05:36:04;;;;;;;9.33;8.43;;;15.30;99.90;;;;;;4989409;28;20468;-62
2023/07/07 05:38:32;;;;;;;9.20;8.40;;;15.40;99.90;;;;;;4994197;28;20492;-60
2023/07/07 05:41:02;;;;;;;8.83;7.90;;;15.40;99.90;;;;;;4992569;28;20500;-62
2023/07/07 05:43:30;;;;;;;9.03;8.13;;;15.50;99.90;;;;;;4995400;28;20598;-62
2023/07/07 05:45:59;;;;;;;9.13;8.37;;;15.60;99.90;;;;;;5001193;28;20551;-61
2023/07/07 05:48:28;;;;;;;9.27;8.30;;;15.70;99.90;;;;;;4993854;28;20495;-62
2023/07/07 05:50:58;;;;;;;9.77;8.90;;;15.80;99.90;;;;;;4995929;28;20551;-60
2023/07/07 05:53:28;;;;;;;8.63;8.03;;;15.90;99.90;;;;;;4992075;28;20528;-61
2023/07/07 05:56:03;;;;;;;8.77;8.07;;;15.90;99.90;;;;;;4998649;28;20555;-60
2023/07/07 05:58:33;;;;;;;8.20;7.40;;;15.90;99.90;;;;;;4998540;28;20497;-60
2023/07/07 06:01:01;;;;;;;8.17;7.50;;;16.00;99.90;;;;;;4999660;28;20511;-60
2023/07/07 06:03:30;;;;;;;8.40;7.67;;;16.10;99.90;;;;;;4997600;28;20503;-63
2023/07/07 06:05:58;;;;;;;7.50;6.77;;;16.20;99.90;;;;;;5000219;28;20538;-60
2023/07/07 06:08:26;;;;;;;7.90;7.30;;;16.20;99.90;;;;;;5000400;28;21014;-60
2023/07/07 06:10:54;;;;;;;8.27;7.43;;;16.30;99.90;;;;;;5001100;28;20563;-61
2023/07/07 06:13:23;;;;;;;7.90;7.30;;;16.30;99.90;;;;;;5000195;28;20526;-61
2023/07/07 06:15:53;;;;;;;8.53;7.20;;;16.40;99.90;;;;;;4996838;28;20825;-60
2023/07/07 06:18:23;;;;;;;7.53;6.80;;;16.50;99.90;;;;;;4999712;28;20488;-63
2023/07/07 06:20:51;;;;;;;7.63;6.90;;;16.60;99.90;;;;;;5000029;28;20496;-62
2023/07/07 06:23:20;;;;;;;7.73;7.00;;;16.60;99.90;;;;;;4997228;28;21214;-61
2023/07/07 06:25:48;;;;;;;6.23;5.80;;;16.70;99.90;;;;;;4998636;28;20604;-63
2023/07/07 06:28:16;;;;;;;6.40;5.90;;;16.80;99.90;;;;;;4997905;28;21028;-62
2023/07/07 06:30:47;;;;;;;6.50;5.90;;;16.90;99.90;;;;;;5000741;28;20472;-60
2023/07/07 06:33:16;;;;;;;6.90;6.30;;;16.90;99.90;;;;;;4999163;28;20491;-60
2023/07/07 06:35:48;;;;;;;6.50;6.00;;;17.00;99.90;;;;;;5001030;28;20482;-63
2023/07/07 06:38:17;;;;;;;5.87;5.43;;;17.10;99.90;;;;;;5001017;28;20498;-61
2023/07/07 06:40:46;;;;;;;6.20;5.70;;;17.10;99.90;;;;;;4999508;28;20560;-63
2023/07/07 06:43:17;;;;;;;6.03;5.53;;;17.20;99.90;;;;;;4995800;28;21045;-60
2023/07/07 06:45:48;;;;;;;5.67;5.27;;;17.30;99.90;;;;;;4996578;28;21094;-61
2023/07/07 06:48:18;;;;;;;7.30;6.23;;;17.40;99.90;;;;;;4998362;28;20571;-62
2023/07/07 06:50:46;;;;;;;11.67;5.90;;;17.50;99.90;;;;;;4998611;28;21853;-62
2023/07/07 06:53:14;;;;;;;5.70;5.10;;;17.60;99.90;;;;;;4999851;28;20527;-62
2023/07/07 06:55:43;;;;;;;6.33;5.10;;;17.60;99.90;;;;;;4996456;28;21122;-62
2023/07/07 06:58:12;;;;;;;5.80;5.40;;;17.70;99.90;;;;;;4995508;28;20916;-62
2023/07/07 07:00:41;;;;;;;6.57;5.67;;;17.80;99.90;;;;;;4999325;28;20484;-63
2023/07/07 07:03:09;;;;;;;6.43;5.93;;;17.90;99.90;;;;;;4992491;28;20511;-62
2023/07/07 07:05:39;;;;;;;7.10;6.50;;;17.90;99.90;;;;;;4983197;28;20614;-62
2023/07/07 07:08:07;;;;;;;6.00;5.50;;;17.90;99.90;;;;;;4997644;28;20493;-63
2023/07/07 07:10:35;;;;;;;6.30;5.70;;;18.00;99.90;;;;;;4997142;28;20504;-64
2023/07/07 07:13:03;;;;;;;5.87;5.47;;;18.00;99.90;;;;;;4993981;28;20583;-61
2023/07/07 07:15:31;;;;;;;5.60;5.10;;;18.10;99.90;;;;;;4998565;28;20552;-61
2023/07/07 07:17:59;;;;;;;5.37;4.97;;;18.20;99.90;;;;;;4993739;28;21108;-60
2023/07/07 07:20:27;;;;;;;5.67;5.27;;;18.20;99.90;;;;;;4999395;28;20472;-62
2023/07/07 07:22:57;;;;;;;6.37;5.67;;;18.30;99.90;;;;;;4995082;28;20500;-61
2023/07/07 07:25:25;;;;;;;7.30;5.90;;;18.40;99.90;;;;;;4998452;28;20472;-59
2023/07/07 07:27:53;;;;;;;8.20;5.47;;;18.50;99.90;;;;;;4994140;28;20515;-61
2023/07/07 07:30:21;;;;;;;7.43;5.50;;;18.60;99.90;;;;;;4995791;28;20479;-60
2023/07/07 07:32:49;;;;;;;5.17;4.70;;;18.70;99.90;;;;;;4998111;28;20490;-60
2023/07/07 07:35:17;;;;;;;5.40;5.00;;;18.70;99.90;;;;;;4997453;28;20853;-59
2023/07/07 07:37:45;;;;;;;5.97;5.57;;;18.80;99.90;;;;;;4998070;28;20929;-60
2023/07/07 07:40:14;;;;;;;6.40;5.07;;;18.90;99.90;;;;;;4995703;28;21072;-60
2023/07/07 07:42:42;;;;;;;5.50;5.00;;;19.00;99.90;;;;;;4994307;28;21037;-60
2023/07/07 07:45:16;;;;;;;5.57;5.07;;;19.10;99.90;;;;;;4994567;28;20905;-61
2023/07/07 07:47:45;;;;;;;7.90;5.13;;;19.20;99.90;;;;;;4993453;28;20510;-59
2023/07/07 07:50:14;;;;;;;5.10;4.70;;;19.20;99.90;;;;;;4997707;28;21041;-60
2023/07/07 07:52:42;;;;;;;5.80;4.83;;;19.30;99.90;;;;;;4998144;28;20543;-60
2023/07/07 07:55:10;;;;;;;5.00;4.53;;;19.40;99.90;;;;;;4998066;28;20930;-60
2023/07/07 07:57:40;;;;;;;6.27;4.70;;;19.50;99.90;;;;;;4995849;28;20539;-60
2023/07/07 08:00:10;;;;;;;7.27;4.57;;;19.60;99.90;;;;;;4997008;28;20476;-60
2023/07/07 08:02:38;;;;;;;5.40;5.00;;;19.60;99.90;;;;;;4996120;28;20503;-59
2023/07/07 08:05:07;;;;;;;6.83;4.70;;;19.70;99.90;;;;;;4997619;28;20535;-60
2023/07/07 08:07:35;;;;;;;6.17;4.33;;;19.80;99.90;;;;;;4994887;28;20575;-60
2023/07/07 08:10:04;;;;;;;4.77;4.37;;;19.90;99.90;;;;;;4999127;28;20538;-59
2023/07/07 08:12:33;;;;;;;6.00;4.40;;;20.00;99.90;;;;;;4997408;28;20500;-60
2023/07/07 08:15:03;;;;;;;4.80;4.40;;;20.10;99.90;;;;;;4999250;28;20476;-61
2023/07/07 08:17:32;;;;;;;7.60;4.80;;;20.20;99.90;;;;;;4997751;28;20580;-60
2023/07/07 08:20:00;;;;;;;4.60;4.30;;;20.30;99.90;;;;;;4997006;28;20845;-59
2023/07/07 08:22:28;;;;;;;4.80;4.20;;;20.40;99.90;;;;;;5000113;28;21371;-60
2023/07/07 08:25:00;;;;;;;6.13;4.73;;;20.50;99.90;;;;;;4995649;28;20575;-60
2023/07/07 08:27:28;;;;;;;7.60;4.83;;;20.50;99.90;;;;;;4997461;28;20490;-60
2023/07/07 08:29:59;;;;;;;4.37;3.97;;;20.60;99.90;;;;;;4993719;28;20468;-60
2023/07/07 08:32:29;;;;;;;4.93;3.87;;;20.70;99.90;;;;;;4994628;28;20492;-61
2023/07/07 08:34:57;;;;;;;5.30;3.50;;;20.80;99.90;;;;;;4998138;28;20459;-60
2023/07/07 08:37:26;;;;;;;4.97;3.37;;;20.80;99.90;;;;;;5002030;28;20501;-59
2023/07/07 08:39:54;;;;;;;4.33;3.03;;;20.90;99.90;;;;;;4999356;28;21044;-60
2023/07/07 08:42:30;;;;;;;3.20;2.33;;;20.90;99.90;;;;;;4994658;28;20906;-61
2023/07/07 08:45:00;;;;;;;3.10;2.70;;;21.10;99.90;;;;;;5003292;28;20496;-60
2023/07/07 08:47:43;;;;;;;2.93;2.63;;;21.20;99.90;;;;;;5001195;28;20571;-60
2023/07/07 08:50:18;;;;;;;3.77;2.63;;;21.20;99.90;;;;;;4997954;28;20487;-60
2023/07/07 08:53:02;;;;;;;2.90;2.60;;;21.30;99.90;;;;;;5001192;28;20492;-61
2023/07/07 08:55:44;;;;;;;3.20;2.70;;;21.30;99.90;;;;;;4999014;28;20464;-60
2023/07/07 08:58:19;;;;;;;3.33;3.03;;;21.30;99.90;;;;;;4999719;28;20491;-59
2023/07/07 09:01:14;;;;;;;4.13;3.43;;;21.50;99.90;;;;;;5001477;28;20500;-60
2023/07/07 09:04:03;;;;;;;3.37;3.07;;;21.60;99.90;;;;;;5002007;28;20535;-60
2023/07/07 09:06:43;;;;;;;3.30;3.03;;;21.60;99.90;;;;;;5000902;28;20500;-60
2023/07/07 09:09:21;;;;;;;2.87;2.67;;;21.70;99.90;;;;;;5000438;28;20598;-60
2023/07/07 09:12:08;;;;;;;2.90;2.70;;;21.70;99.90;;;;;;4998519;28;20541;-59
2023/07/07 09:14:38;;;;;;;2.90;2.70;;;21.80;99.90;;;;;;4998188;28;20551;-60
2023/07/07 09:17:16;;;;;;;2.90;2.70;;;21.80;99.90;;;;;;4999268;28;21286;-61
2023/07/07 09:19:48;;;;;;;3.83;3.10;;;21.90;99.90;;;;;;5000516;28;20480;-60
2023/07/07 09:22:24;;;;;;;2.90;2.70;;;21.90;99.90;;;;;;4996647;28;20614;-59
2023/07/07 09:24:58;;;;;;;3.60;2.90;;;22.00;99.90;;;;;;4992426;28;20510;-59
2023/07/07 09:27:30;;;;;;;3.07;2.77;;;22.00;99.90;;;;;;4999238;28;20543;-60
2023/07/07 09:30:06;;;;;;;3.60;3.00;;;22.10;99.90;;;;;;4995084;28;20542;-62
2023/07/07 09:32:34;;;;;;;4.53;2.90;;;22.10;99.90;;;;;;4989580;28;20598;-64
2023/07/07 09:35:04;;;;;;;2.77;2.57;;;22.10;99.90;;;;;;4994630;28;20439;-63
2023/07/07 09:37:40;;;;;;;4.20;2.80;;;22.20;99.90;;;;;;4994159;28;20587;-63
2023/07/07 09:40:16;;;;;;;3.57;2.80;;;22.30;99.90;;;;;;4997472;28;20973;-65
2023/07/07 09:42:55;;;;;;;2.70;2.50;;;22.30;99.90;;;;;;5000058;28;20495;-64
2023/07/07 09:45:35;;;;;;;3.13;2.80;;;22.40;99.90;;;;;;4997888;28;20567;-64
2023/07/07 09:48:18;;;;;;;2.73;2.50;;;22.40;99.90;;;;;;4996998;28;20566;-62
2023/07/07 09:50:53;;;;;;;4.70;2.80;;;22.40;99.90;;;;;;4989237;28;20492;-63
2023/07/07 09:53:26;;;;;;;4.10;2.37;;;22.50;99.90;;;;;;4997689;28;20496;-62
2023/07/07 09:56:10;;;;;;;2.90;2.70;;;22.50;99.90;;;;;;4997271;28;20489;-62
2023/07/07 09:58:42;;;;;;;2.90;2.40;;;22.60;99.90;;;;;;4997721;28;20580;-62
2023/07/07 10:01:11;;;;;;;2.40;2.20;;;22.70;99.90;;;;;;4995969;28;20473;-62
2023/07/07 10:03:42;;;;;;;4.00;2.83;;;22.80;99.90;;;;;;4995129;28;20504;-62
2023/07/07 10:06:31;;;;;;;3.23;2.47;;;22.80;98.20;;;;;;4994085;28;20927;-61
2023/07/07 10:09:00;;;;;;;3.83;2.57;;;22.90;99.90;;;;;;4992121;28;20535;-60
2023/07/07 10:11:31;;;;;;;3.67;3.27;;;23.00;98.90;;;;;;4997903;28;20526;-62
2023/07/07 10:14:05;;;;;;;2.87;2.67;;;23.00;96.60;;;;;;4993231;28;20561;-61
2023/07/07 10:16:41;;;;;;;3.67;2.70;;;23.00;99.90;;;;;;4994020;28;20873;-61
2023/07/07 10:19:12;;;;;;;2.50;2.30;;;23.10;95.20;;;;;;4994065;28;20555;-63
2023/07/07 10:21:43;;;;;;;2.93;2.60;;;23.10;96.30;;;;;;4990591;28;20559;-62
2023/07/07 10:24:13;;;;;;;2.60;2.40;;;23.20;99.90;;;;;;4991720;28;20518;-62
2023/07/07 10:26:45;;;;;;;2.43;2.20;;;23.30;99.90;;;;;;4982489;28;20550;-61
2023/07/07 10:29:16;;;;;;;2.43;2.23;;;23.30;93.30;;;;;;4990588;28;20635;-61
2023/07/07 10:31:47;;;;;;;3.00;2.60;;;23.40;99.00;;;;;;4993515;28;20973;-60
2023/07/07 10:34:26;;;;;;;2.70;2.50;;;23.40;96.40;;;;;;4980156;28;20476;-63
2023/07/07 10:36:56;;;;;;;2.80;2.60;;;23.50;97.80;;;;;;4993027;28;20510;-62
2023/07/07 10:39:25;;;;;;;3.53;2.60;;;23.60;98.20;;;;;;4995023;28;20480;-61
2023/07/07 10:41:53;;;;;;;2.67;2.47;;;23.60;92.10;;;;;;4986897;28;20473;-64
2023/07/07 10:44:24;;;;;;;2.67;2.47;;;23.70;97.50;;;;;;4996695;28;20521;-63
2023/07/07 10:46:52;;;;;;;3.50;2.23;;;23.80;91.90;;;;;;4999687;28;20540;-62
2023/07/07 10:49:24;;;;;;;3.00;2.40;;;23.80;93.50;;;;;;4995465;28;20455;-61
2023/07/07 10:52:12;;;;;;;2.33;2.13;;;23.80;93.30;;;;;;4991224;28;20978;-61
2023/07/07 10:54:48;;;;;;;2.87;2.67;;;23.70;91.50;;;;;;4996134;28;20491;-61
2023/07/07 10:57:25;;;;;;;2.37;2.27;;;23.70;93.00;;;;;;4993776;28;20592;-61
2023/07/07 11:00:05;;;;;;;2.63;2.40;;;23.80;96.00;;;;;;4999260;28;20479;-61
2023/07/07 11:03:08;;;;;;;2.53;2.33;;;23.80;96.80;;;;;;4998898;28;21067;-60
2023/07/07 11:05:45;;;;;;;2.90;2.70;;;23.80;92.90;;;;;;4980714;28;20476;-63
2023/07/07 11:08:40;;;;;;;2.87;2.43;;;23.80;90.90;;;;;;4988331;28;20504;-60
2023/07/07 11:11:19;;;;;;;3.60;2.33;;;24.00;92.00;;;;;;4995658;28;20505;-61
2023/07/07 11:14:02;;;;;;;3.60;2.80;;;24.00;90.90;;;;;;4990650;28;21157;-62
2023/07/07 11:16:36;;;;;;;3.03;2.77;;;24.10;89.30;;;;;;4984732;28;21013;-60
2023/07/07 11:19:19;;;;;;;2.90;2.70;;;24.20;90.10;;;;;;4993376;28;20468;-61
2023/07/07 11:21:55;;;;;;;2.77;2.50;;;24.40;92.40;;;;;;4992539;28;20544;-61
2023/07/07 11:24:30;;;;;;;4.40;2.43;;;24.40;98.30;;;;;;4991815;28;20531;-61
2023/07/07 11:27:43;;;;;;;2.57;2.37;;;24.60;92.00;;;;;;4996193;28;20493;-61
2023/07/07 11:30:22;;;;;;;3.30;2.40;;;24.60;89.70;;;;;;4997582;28;20480;-60
2023/07/07 11:33:02;;;;;;;3.30;2.40;;;24.80;94.40;;;;;;4982872;28;20504;-60
2023/07/07 11:35:44;;;;;;;2.93;2.73;;;25.00;91.70;;;;;;4990937;28;20473;-61
2023/07/07 11:38:30;;;;;;;2.80;2.47;;;25.00;89.70;;;;;;4985488;28;20601;-61
2023/07/07 11:41:12;;;;;;;2.33;2.17;;;24.90;84.80;;;;;;4989342;28;20540;-60
2023/07/07 11:44:16;;;;;;;2.77;2.30;;;24.90;89.30;;;;;;4988694;28;20500;-60
2023/07/07 11:47:01;;;;;;;5.00;2.63;;;25.10;92.50;;;;;;4982227;28;20570;-60
2023/07/07 11:49:44;;;;;;;2.97;2.73;;;25.30;91.50;;;;;;4992467;28;20504;-64
2023/07/07 11:52:26;;;;;;;2.70;2.20;;;25.50;81.40;;;;;;4993653;28;21040;-64
2023/07/07 11:55:16;;;;;;;2.73;2.40;;;25.60;73.80;;;;;;4994861;28;20579;-63
2023/07/07 11:57:56;;;;;;;2.80;2.60;;;25.70;73.40;;;;;;4992874;28;20834;-61
2023/07/07 12:00:38;;;;;;;2.50;2.30;;;25.80;76.00;;;;;;4981884;28;20876;-61
2023/07/07 12:03:40;;;;;;;2.47;2.27;;;25.90;82.50;;;;;;4994622;28;20595;-61
2023/07/07 12:06:17;;;;;;;2.70;2.50;;;26.00;73.60;;;;;;4925581;28;20498;-63
2023/07/07 12:08:56;;;;;;;2.87;2.30;;;26.00;68.60;;;;;;4983270;28;20503;-61
2023/07/07 12:11:28;;;;;;;2.57;2.37;;;26.20;73.30;;;;;;5002486;28;20471;-61
2023/07/07 12:14:14;;;;;;;7.00;2.40;;;26.20;65.60;;;;;;4994781;28;21025;-60
2023/07/07 12:16:45;;;;;;;2.83;2.53;;;26.20;74.20;;;;;;4995055;28;20873;-60
2023/07/07 12:19:25;;;;;;;2.30;2.10;;;26.40;74.00;;;;;;5002583;28;20957;-61
2023/07/07 12:21:55;;;;;;;2.33;2.13;;;26.40;72.40;;;;;;4998954;28;20476;-60
2023/07/07 12:24:29;;;;;;;2.77;2.50;;;26.50;65.40;;;;;;5001744;28;20565;-59
2023/07/07 12:27:08;;;;;;;2.80;2.53;;;26.50;72.00;;;;;;5003121;28;20471;-60
2023/07/07 12:29:42;;;;;;;2.50;2.33;;;26.60;69.70;;;;;;4996146;28;20516;-60
2023/07/07 12:32:10;;;;;;;2.97;2.67;;;26.70;67.90;;;;;;4993046;28;20578;-60
2023/07/07 12:34:42;;;;;;;2.60;2.40;;;26.80;67.90;;;;;;5000446;28;20527;-61
2023/07/07 12:37:15;;;;;;;2.40;2.20;;;26.80;66.10;;;;;;5004546;28;20480;-60
2023/07/07 12:39:58;;;;;;;4.33;2.33;;;27.00;64.80;;;;;;4995889;28;20547;-61
2023/07/07 12:42:29;;;;;;;2.63;2.43;;;27.10;65.00;;;;;;4995854;28;20500;-61
2023/07/07 12:45:08;;;;;;;2.83;2.63;;;27.10;61.20;;;;;;4994961;28;20496;-59
2023/07/07 12:47:40;;;;;;;3.83;2.63;;;27.20;61.00;;;;;;4996121;28;20503;-59
2023/07/07 12:50:24;;;;;;;2.80;2.60;;;27.30;62.50;;;;;;4998771;28;20558;-60
2023/07/07 12:52:53;;;;;;;2.93;2.60;;;27.50;58.00;;;;;;4999250;28;21259;-63
2023/07/07 12:55:24;;;;;;;3.60;3.20;;;27.60;55.40;;;;;;5001026;28;21052;-59
2023/07/07 12:58:41;;;;;;;3.60;3.30;;;27.60;51.10;;;;;;5001066;28;20617;-61
2023/07/07 13:01:27;;;;;;;3.30;2.73;;;27.60;49.40;;;;;;4997300;28;20633;-61
2023/07/07 13:04:10;;;;;;;3.20;2.70;;;27.70;51.00;;;;;;4995127;28;20480;-61
2023/07/07 13:06:41;;;;;;;2.97;2.60;;;27.90;59.60;;;;;;4997539;28;20500;-62
2023/07/07 13:09:21;;;;;;;5.53;2.50;;;28.00;58.20;;;;;;4998312;28;20953;-61
2023/07/07 13:11:51;;;;;;;3.10;2.80;;;28.10;54.80;;;;;;5001976;28;20523;-61